sensor_id;sensor_type;location;lat;lon;timestamp;temperature;humidity
54642;DHT22;40536;53.194;5.728;2023-05-16T00:00:23;8.40;99.90
54642;DHT22;40536;53.194;5.728;2023-05-16T00:02:50;8.40;99.90
54642;DHT22;40536;53.194;5.728;2023-05-16T00:05:16;8.40;99.90
54642;DHT22;40536;53.194;5.728;2023-05-16T00:07:43;8.40;99.90
54642;DHT22;40536;53.194;5.728;2023-05-16T00:10:10;8.30;99.90
54642;DHT22;40536;53.194;5.728;2023-05-16T00:12:36;8.30;99.90
54642;DHT22;40536;53.194;5.728;2023-05-16T00:15:04;8.40;99.90
54642;DHT22;40536;53.194;5.728;2023-05-16T00:17:31;8.30;99.90
54642;DHT22;40536;53.194;5.728;2023-05-16T00:19:57;8.30;99.90
54642;DHT22;40536;53.194;5.728;2023-05-16T00:22:26;8.20;99.90
54642;DHT22;40536;53.194;5.728;2023-05-16T00:24:52;8.30;99.90
54642;DHT22;40536;53.194;5.728;2023-05-16T00:27:17;8.30;99.90
54642;DHT22;40536;53.194;5.728;2023-05-16T00:29:43;8.20;99.90
54642;DHT22;40536;53.194;5.728;2023-05-16T00:32:09;8.20;99.90
54642;DHT22;40536;53.194;5.728;2023-05-16T00:34:35;8.20;99.90
54642;DHT22;40536;53.194;5.728;2023-05-16T00:37:00;8.30;99.90
54642;DHT22;40536;53.194;5.728;2023-05-16T00:39:26;8.20;99.90
54642;DHT22;40536;53.194;5.728;2023-05-16T00:41:52;8.20;99.90
54642;DHT22;40536;53.194;5.728;2023-05-16T00:44:18;8.30;99.90
54642;DHT22;40536;53.194;5.728;2023-05-16T00:46:43;8.20;99.90
54642;DHT22;40536;53.194;5.728;2023-05-16T00:49:09;8.30;99.90
54642;DHT22;40536;53.194;5.728;2023-05-16T00:51:38;8.30;99.90
54642;DHT22;40536;53.194;5.728;2023-05-16T00:54:04;8.20;99.90
54642;DHT22;40536;53.194;5.728;2023-05-16T00:56:31;8.30;99.90
54642;DHT22;40536;53.194;5.728;2023-05-16T00:58:56;8.30;99.90
54642;DHT22;40536;53.194;5.728;2023-05-16T01:01:24;8.30;99.90
54642;DHT22;40536;53.194;5.728;2023-05-16T01:03:51;8.20;99.90
54642;DHT22;40536;53.194;5.728;2023-05-16T01:06:18;8.20;99.90
54642;DHT22;40536;53.194;5.728;2023-05-16T01:08:44;8.20;99.90
54642;DHT22;40536;53.194;5.728;2023-05-16T01:13:47;8.20;99.90
54642;DHT22;40536;53.194;5.728;2023-05-16T01:22:15;8.20;99.90
54642;DHT22;40536;53.194;5.728;2023-05-16T01:27:46;8.20;99.90
54642;DHT22;40536;53.194;5.728;2023-05-16T01:30:15;8.10;99.90
54642;DHT22;40536;53.194;5.728;2023-05-16T01:32:42;8.20;99.90
54642;DHT22;40536;53.194;5.728;2023-05-16T01:35:09;8.10;99.90
54642;DHT22;40536;53.194;5.728;2023-05-16T01:40:12;8.10;99.90
54642;DHT22;40536;53.194;5.728;2023-05-16T01:42:44;8.10;99.90
54642;DHT22;40536;53.194;5.728;2023-05-16T01:45:30;8.10;99.90
54642;DHT22;40536;53.194;5.728;2023-05-16T01:48:04;8.00;99.90
54642;DHT22;40536;53.194;5.728;2023-05-16T01:50:34;8.10;99.90
54642;DHT22;40536;53.194;5.728;2023-05-16T01:53:10;8.00;99.90
54642;DHT22;40536;53.194;5.728;2023-05-16T01:55:47;8.00;99.90
54642;DHT22;40536;53.194;5.728;2023-05-16T01:58:15;8.00;99.90
54642;DHT22;40536;53.194;5.728;2023-05-16T02:00:42;8.00;99.90
54642;DHT22;40536;53.194;5.728;2023-05-16T02:03:08;7.90;99.90
54642;DHT22;40536;53.194;5.728;2023-05-16T02:05:33;7.90;99.90
54642;DHT22;40536;53.194;5.728;2023-05-16T02:08:00;7.90;99.90
54642;DHT22;40536;53.194;5.728;2023-05-16T02:10:26;7.90;99.90
54642;DHT22;40536;53.194;5.728;2023-05-16T02:12:52;7.80;99.90
54642;DHT22;40536;53.194;5.728;2023-05-16T02:15:18;7.70;99.90
54642;DHT22;40536;53.194;5.728;2023-05-16T02:17:44;7.70;99.90
54642;DHT22;40536;53.194;5.728;2023-05-16T02:20:10;7.90;99.90
54642;DHT22;40536;53.194;5.728;2023-05-16T02:22:36;7.70;99.90
54642;DHT22;40536;53.194;5.728;2023-05-16T02:25:04;7.70;99.90
54642;DHT22;40536;53.194;5.728;2023-05-16T02:27:30;7.70;99.90
54642;DHT22;40536;53.194;5.728;2023-05-16T02:29:56;7.60;99.90
54642;DHT22;40536;53.194;5.728;2023-05-16T02:32:22;7.70;99.90
54642;DHT22;40536;53.194;5.728;2023-05-16T02:34:48;7.60;99.90
54642;DHT22;40536;53.194;5.728;2023-05-16T02:37:13;7.60;99.90
54642;DHT22;40536;53.194;5.728;2023-05-16T02:39:39;7.90;99.90
54642;DHT22;40536;53.194;5.728;2023-05-16T02:42:06;7.60;99.90
54642;DHT22;40536;53.194;5.728;2023-05-16T02:44:32;7.70;99.90
54642;DHT22;40536;53.194;5.728;2023-05-16T02:46:57;7.60;99.90
54642;DHT22;40536;53.194;5.728;2023-05-16T02:49:23;8.20;99.90
54642;DHT22;40536;53.194;5.728;2023-05-16T02:51:49;7.60;99.90
54642;DHT22;40536;53.194;5.728;2023-05-16T02:54:14;7.50;99.90
54642;DHT22;40536;53.194;5.728;2023-05-16T02:56:40;7.50;99.90
54642;DHT22;40536;53.194;5.728;2023-05-16T02:59:06;7.50;99.90
54642;DHT22;40536;53.194;5.728;2023-05-16T03:01:32;7.50;99.90
54642;DHT22;40536;53.194;5.728;2023-05-16T03:03:57;7.60;99.90
54642;DHT22;40536;53.194;5.728;2023-05-16T03:06:24;7.60;99.90
54642;DHT22;40536;53.194;5.728;2023-05-16T03:08:49;7.60;99.90
54642;DHT22;40536;53.194;5.728;2023-05-16T03:11:16;8.20;99.90
54642;DHT22;40536;53.194;5.728;2023-05-16T03:13:43;7.60;99.90
54642;DHT22;40536;53.194;5.728;2023-05-16T03:16:09;7.50;99.90
54642;DHT22;40536;53.194;5.728;2023-05-16T03:18:35;7.50;99.90
54642;DHT22;40536;53.194;5.728;2023-05-16T03:21:00;7.60;99.90
54642;DHT22;40536;53.194;5.728;2023-05-16T03:23:27;7.90;99.90
54642;DHT22;40536;53.194;5.728;2023-05-16T03:25:53;7.60;99.90
54642;DHT22;40536;53.194;5.728;2023-05-16T03:28:18;7.80;99.90
54642;DHT22;40536;53.194;5.728;2023-05-16T03:30:49;7.70;99.90
54642;DHT22;40536;53.194;5.728;2023-05-16T03:33:14;7.60;99.90
54642;DHT22;40536;53.194;5.728;2023-05-16T03:35:41;7.60;99.90
54642;DHT22;40536;53.194;5.728;2023-05-16T03:38:07;7.70;99.90
54642;DHT22;40536;53.194;5.728;2023-05-16T03:40:33;8.20;99.90
54642;DHT22;40536;53.194;5.728;2023-05-16T03:42:59;7.70;99.90
54642;DHT22;40536;53.194;5.728;2023-05-16T03:45:25;7.70;99.90
54642;DHT22;40536;53.194;5.728;2023-05-16T03:47:51;7.70;99.90
54642;DHT22;40536;53.194;5.728;2023-05-16T03:50:17;7.70;99.90
54642;DHT22;40536;53.194;5.728;2023-05-16T03:52:42;7.80;99.90
54642;DHT22;40536;53.194;5.728;2023-05-16T03:55:08;7.80;99.90
54642;DHT22;40536;53.194;5.728;2023-05-16T03:57:35;7.70;99.90
54642;DHT22;40536;53.194;5.728;2023-05-16T04:00:02;7.80;99.90
54642;DHT22;40536;53.194;5.728;2023-05-16T04:02:32;7.70;99.90
54642;DHT22;40536;53.194;5.728;2023-05-16T04:04:57;8.60;99.90
54642;DHT22;40536;53.194;5.728;2023-05-16T04:07:23;7.70;99.90
54642;DHT22;40536;53.194;5.728;2023-05-16T04:09:49;7.70;99.90
54642;DHT22;40536;53.194;5.728;2023-05-16T04:12:15;7.70;99.90
54642;DHT22;40536;53.194;5.728;2023-05-16T04:14:41;7.70;99.90
54642;DHT22;40536;53.194;5.728;2023-05-16T04:17:07;7.70;99.90
54642;DHT22;40536;53.194;5.728;2023-05-16T04:19:32;7.70;99.90
54642;DHT22;40536;53.194;5.728;2023-05-16T04:21:58;7.80;99.90
54642;DHT22;40536;53.194;5.728;2023-05-16T04:24:23;7.80;99.90
54642;DHT22;40536;53.194;5.728;2023-05-16T04:26:53;7.90;99.90
54642;DHT22;40536;53.194;5.728;2023-05-16T04:29:19;7.90;99.90
54642;DHT22;40536;53.194;5.728;2023-05-16T04:31:45;8.00;99.90
54642;DHT22;40536;53.194;5.728;2023-05-16T04:34:11;8.30;99.90
54642;DHT22;40536;53.194;5.728;2023-05-16T04:36:37;8.30;99.90
54642;DHT22;40536;53.194;5.728;2023-05-16T04:39:03;8.30;99.90
54642;DHT22;40536;53.194;5.728;2023-05-16T04:41:29;8.30;99.90
54642;DHT22;40536;53.194;5.728;2023-05-16T04:43:54;8.40;99.90
54642;DHT22;40536;53.194;5.728;2023-05-16T04:46:20;8.50;99.90
54642;DHT22;40536;53.194;5.728;2023-05-16T04:48:46;8.50;99.90
54642;DHT22;40536;53.194;5.728;2023-05-16T04:51:12;8.50;99.90
54642;DHT22;40536;53.194;5.728;2023-05-16T04:53:37;8.60;99.90
54642;DHT22;40536;53.194;5.728;2023-05-16T04:56:03;8.60;99.90
54642;DHT22;40536;53.194;5.728;2023-05-16T04:58:30;8.80;99.90
54642;DHT22;40536;53.194;5.728;2023-05-16T05:00:56;9.00;99.90
54642;DHT22;40536;53.194;5.728;2023-05-16T05:03:22;9.20;99.90
54642;DHT22;40536;53.194;5.728;2023-05-16T05:05:48;9.30;99.90
54642;DHT22;40536;53.194;5.728;2023-05-16T05:08:14;9.50;99.90
54642;DHT22;40536;53.194;5.728;2023-05-16T05:10:40;9.70;99.90
54642;DHT22;40536;53.194;5.728;2023-05-16T05:13:06;9.90;99.90
54642;DHT22;40536;53.194;5.728;2023-05-16T05:15:32;10.10;99.90
54642;DHT22;40536;53.194;5.728;2023-05-16T05:17:58;10.20;99.90
54642;DHT22;40536;53.194;5.728;2023-05-16T05:20:23;10.40;99.90
54642;DHT22;40536;53.194;5.728;2023-05-16T05:22:49;10.60;99.90
54642;DHT22;40536;53.194;5.728;2023-05-16T05:25:15;10.70;99.90
54642;DHT22;40536;53.194;5.728;2023-05-16T05:27:41;10.80;99.90
54642;DHT22;40536;53.194;5.728;2023-05-16T05:30:08;11.00;99.90
54642;DHT22;40536;53.194;5.728;2023-05-16T05:32:34;11.40;99.90
54642;DHT22;40536;53.194;5.728;2023-05-16T05:35:00;11.60;99.90
54642;DHT22;40536;53.194;5.728;2023-05-16T05:37:26;11.60;99.90
54642;DHT22;40536;53.194;5.728;2023-05-16T05:39:51;11.30;99.90
54642;DHT22;40536;53.194;5.728;2023-05-16T05:42:17;11.00;99.90
54642;DHT22;40536;53.194;5.728;2023-05-16T05:44:43;10.70;99.90
54642;DHT22;40536;53.194;5.728;2023-05-16T05:47:08;10.50;99.90
54642;DHT22;40536;53.194;5.728;2023-05-16T05:49:34;10.40;99.90
54642;DHT22;40536;53.194;5.728;2023-05-16T05:52:00;10.50;99.90
54642;DHT22;40536;53.194;5.728;2023-05-16T05:54:26;10.90;99.90
54642;DHT22;40536;53.194;5.728;2023-05-16T05:56:52;11.30;99.90
54642;DHT22;40536;53.194;5.728;2023-05-16T05:59:17;11.80;99.90
54642;DHT22;40536;53.194;5.728;2023-05-16T06:01:43;12.10;99.90
54642;DHT22;40536;53.194;5.728;2023-05-16T06:04:09;12.40;99.90
54642;DHT22;40536;53.194;5.728;2023-05-16T06:06:36;12.50;99.90
54642;DHT22;40536;53.194;5.728;2023-05-16T06:09:02;12.30;99.90
54642;DHT22;40536;53.194;5.728;2023-05-16T06:11:27;12.20;99.90
54642;DHT22;40536;53.194;5.728;2023-05-16T06:13:53;11.90;99.90
54642;DHT22;40536;53.194;5.728;2023-05-16T06:16:22;11.60;99.90
54642;DHT22;40536;53.194;5.728;2023-05-16T06:18:48;11.30;99.90
54642;DHT22;40536;53.194;5.728;2023-05-16T06:21:13;11.30;99.90
54642;DHT22;40536;53.194;5.728;2023-05-16T06:23:39;11.80;99.90
54642;DHT22;40536;53.194;5.728;2023-05-16T06:26:05;12.30;99.90
54642;DHT22;40536;53.194;5.728;2023-05-16T06:28:31;12.20;99.90
54642;DHT22;40536;53.194;5.728;2023-05-16T06:30:56;12.00;99.90
54642;DHT22;40536;53.194;5.728;2023-05-16T06:33:22;12.40;99.90
54642;DHT22;40536;53.194;5.728;2023-05-16T06:35:48;12.80;99.90
54642;DHT22;40536;53.194;5.728;2023-05-16T06:38:14;12.90;99.90
54642;DHT22;40536;53.194;5.728;2023-05-16T06:40:40;12.90;99.90
54642;DHT22;40536;53.194;5.728;2023-05-16T06:43:06;13.30;99.90
54642;DHT22;40536;53.194;5.728;2023-05-16T06:45:32;13.70;99.90
54642;DHT22;40536;53.194;5.728;2023-05-16T06:47:58;14.10;99.90
54642;DHT22;40536;53.194;5.728;2023-05-16T06:50:24;14.50;99.90
54642;DHT22;40536;53.194;5.728;2023-05-16T06:52:49;14.80;99.90
54642;DHT22;40536;53.194;5.728;2023-05-16T06:55:15;15.00;99.90
54642;DHT22;40536;53.194;5.728;2023-05-16T06:57:41;15.00;99.90
54642;DHT22;40536;53.194;5.728;2023-05-16T07:00:07;14.70;99.90
54642;DHT22;40536;53.194;5.728;2023-05-16T07:02:33;15.20;99.90
54642;DHT22;40536;53.194;5.728;2023-05-16T07:04:59;15.70;99.90
54642;DHT22;40536;53.194;5.728;2023-05-16T07:07:24;15.30;99.90
54642;DHT22;40536;53.194;5.728;2023-05-16T07:09:50;14.80;99.90
54642;DHT22;40536;53.194;5.728;2023-05-16T07:12:16;14.50;99.90
54642;DHT22;40536;53.194;5.728;2023-05-16T07:14:41;14.60;99.90
54642;DHT22;40536;53.194;5.728;2023-05-16T07:17:08;15.10;99.90
54642;DHT22;40536;53.194;5.728;2023-05-16T07:19:34;15.10;99.90
54642;DHT22;40536;53.194;5.728;2023-05-16T07:22:00;14.70;99.90
54642;DHT22;40536;53.194;5.728;2023-05-16T07:24:25;14.00;99.90
54642;DHT22;40536;53.194;5.728;2023-05-16T07:26:51;13.40;99.90
54642;DHT22;40536;53.194;5.728;2023-05-16T07:29:17;12.90;99.90
54642;DHT22;40536;53.194;5.728;2023-05-16T07:31:43;12.50;99.90
54642;DHT22;40536;53.194;5.728;2023-05-16T07:34:09;12.30;99.90
54642;DHT22;40536;53.194;5.728;2023-05-16T07:36:35;12.70;99.90
54642;DHT22;40536;53.194;5.728;2023-05-16T07:39:01;13.60;99.90
54642;DHT22;40536;53.194;5.728;2023-05-16T07:41:28;14.30;99.90
54642;DHT22;40536;53.194;5.728;2023-05-16T07:43:53;15.00;99.90
54642;DHT22;40536;53.194;5.728;2023-05-16T07:46:19;14.90;99.90
54642;DHT22;40536;53.194;5.728;2023-05-16T07:48:45;14.30;99.90
54642;DHT22;40536;53.194;5.728;2023-05-16T07:51:11;13.80;99.90
54642;DHT22;40536;53.194;5.728;2023-05-16T07:53:36;14.40;99.90
54642;DHT22;40536;53.194;5.728;2023-05-16T07:56:02;15.10;99.90
54642;DHT22;40536;53.194;5.728;2023-05-16T07:58:28;15.80;99.90
54642;DHT22;40536;53.194;5.728;2023-05-16T08:00:54;16.40;99.90
54642;DHT22;40536;53.194;5.728;2023-05-16T08:03:19;16.90;99.90
54642;DHT22;40536;53.194;5.728;2023-05-16T08:05:45;17.60;99.90
54642;DHT22;40536;53.194;5.728;2023-05-16T08:08:13;18.10;99.90
54642;DHT22;40536;53.194;5.728;2023-05-16T08:10:38;18.20;99.90
54642;DHT22;40536;53.194;5.728;2023-05-16T08:13:04;17.60;99.90
54642;DHT22;40536;53.194;5.728;2023-05-16T08:15:30;16.70;99.90
54642;DHT22;40536;53.194;5.728;2023-05-16T08:17:59;15.80;99.90
54642;DHT22;40536;53.194;5.728;2023-05-16T08:20:25;15.00;99.90
54642;DHT22;40536;53.194;5.728;2023-05-16T08:22:51;14.30;99.90
54642;DHT22;40536;53.194;5.728;2023-05-16T08:25:17;14.40;99.90
54642;DHT22;40536;53.194;5.728;2023-05-16T08:27:48;15.10;99.90
54642;DHT22;40536;53.194;5.728;2023-05-16T08:30:14;15.10;99.90
54642;DHT22;40536;53.194;5.728;2023-05-16T08:32:39;15.70;99.90
54642;DHT22;40536;53.194;5.728;2023-05-16T08:35:06;15.80;99.90
54642;DHT22;40536;53.194;5.728;2023-05-16T08:37:31;15.30;99.90
54642;DHT22;40536;53.194;5.728;2023-05-16T08:39:58;15.00;99.90
54642;DHT22;40536;53.194;5.728;2023-05-16T08:42:23;15.70;99.90
54642;DHT22;40536;53.194;5.728;2023-05-16T08:44:49;16.20;99.90
54642;DHT22;40536;53.194;5.728;2023-05-16T08:47:19;16.10;99.90
54642;DHT22;40536;53.194;5.728;2023-05-16T08:49:50;16.80;99.90
54642;DHT22;40536;53.194;5.728;2023-05-16T08:52:18;17.90;99.90
54642;DHT22;40536;53.194;5.728;2023-05-16T08:54:45;18.50;99.90
54642;DHT22;40536;53.194;5.728;2023-05-16T08:57:12;18.60;99.90
54642;DHT22;40536;53.194;5.728;2023-05-16T08:59:39;18.80;99.90
54642;DHT22;40536;53.194;5.728;2023-05-16T09:02:06;19.10;99.90
54642;DHT22;40536;53.194;5.728;2023-05-16T09:04:31;19.20;99.90
54642;DHT22;40536;53.194;5.728;2023-05-16T09:06:57;19.60;99.90
54642;DHT22;40536;53.194;5.728;2023-05-16T09:09:23;19.90;99.90
54642;DHT22;40536;53.194;5.728;2023-05-16T09:11:52;19.20;99.90
54642;DHT22;40536;53.194;5.728;2023-05-16T09:14:17;18.00;99.90
54642;DHT22;40536;53.194;5.728;2023-05-16T09:16:44;17.40;99.90
54642;DHT22;40536;53.194;5.728;2023-05-16T09:19:12;17.00;99.90
54642;DHT22;40536;53.194;5.728;2023-05-16T09:21:39;17.00;99.90
54642;DHT22;40536;53.194;5.728;2023-05-16T09:24:06;17.60;99.90
54642;DHT22;40536;53.194;5.728;2023-05-16T09:26:33;17.90;99.90
54642;DHT22;40536;53.194;5.728;2023-05-16T09:28:59;17.50;99.90
54642;DHT22;40536;53.194;5.728;2023-05-16T09:31:27;16.80;99.90
54642;DHT22;40536;53.194;5.728;2023-05-16T09:34:01;16.20;99.90
54642;DHT22;40536;53.194;5.728;2023-05-16T09:36:27;16.50;99.90
54642;DHT22;40536;53.194;5.728;2023-05-16T09:38:52;16.50;99.90
54642;DHT22;40536;53.194;5.728;2023-05-16T09:41:20;16.80;99.90
54642;DHT22;40536;53.194;5.728;2023-05-16T09:43:46;16.70;99.90
54642;DHT22;40536;53.194;5.728;2023-05-16T09:46:15;16.00;99.90
54642;DHT22;40536;53.194;5.728;2023-05-16T09:48:47;15.30;99.90
54642;DHT22;40536;53.194;5.728;2023-05-16T09:51:13;15.10;99.90
54642;DHT22;40536;53.194;5.728;2023-05-16T09:53:40;15.90;99.90
54642;DHT22;40536;53.194;5.728;2023-05-16T09:56:09;17.00;99.90
54642;DHT22;40536;53.194;5.728;2023-05-16T09:58:37;17.60;99.90
54642;DHT22;40536;53.194;5.728;2023-05-16T10:01:03;18.50;99.90
54642;DHT22;40536;53.194;5.728;2023-05-16T10:03:30;18.70;99.90
54642;DHT22;40536;53.194;5.728;2023-05-16T10:05:56;17.80;99.90
54642;DHT22;40536;53.194;5.728;2023-05-16T10:08:24;17.60;99.90
54642;DHT22;40536;53.194;5.728;2023-05-16T10:10:51;17.30;99.90
54642;DHT22;40536;53.194;5.728;2023-05-16T10:13:27;17.20;99.90
54642;DHT22;40536;53.194;5.728;2023-05-16T10:15:55;16.40;99.90
54642;DHT22;40536;53.194;5.728;2023-05-16T10:18:26;15.80;99.90
54642;DHT22;40536;53.194;5.728;2023-05-16T10:20:54;15.40;99.90
54642;DHT22;40536;53.194;5.728;2023-05-16T10:23:24;15.10;99.90
54642;DHT22;40536;53.194;5.728;2023-05-16T10:25:51;14.90;99.90
54642;DHT22;40536;53.194;5.728;2023-05-16T10:28:17;14.50;99.90
54642;DHT22;40536;53.194;5.728;2023-05-16T10:30:44;14.60;99.90
54642;DHT22;40536;53.194;5.728;2023-05-16T10:33:16;14.40;99.90
54642;DHT22;40536;53.194;5.728;2023-05-16T10:35:43;14.20;99.90
54642;DHT22;40536;53.194;5.728;2023-05-16T10:38:10;14.30;99.90
54642;DHT22;40536;53.194;5.728;2023-05-16T10:40:37;14.60;99.90
54642;DHT22;40536;53.194;5.728;2023-05-16T10:43:04;14.60;99.90
54642;DHT22;40536;53.194;5.728;2023-05-16T10:45:31;14.70;99.90
54642;DHT22;40536;53.194;5.728;2023-05-16T10:47:58;14.70;99.90
54642;DHT22;40536;53.194;5.728;2023-05-16T10:53:14;15.70;99.90
54642;DHT22;40536;53.194;5.728;2023-05-16T10:56:05;16.50;99.90
54642;DHT22;40536;53.194;5.728;2023-05-16T11:06:26;17.80;99.90
54642;DHT22;40536;53.194;5.728;2023-05-16T11:11:57;17.70;99.90
54642;DHT22;40536;53.194;5.728;2023-05-16T11:17:14;17.60;99.90
54642;DHT22;40536;53.194;5.728;2023-05-16T11:19:47;17.70;99.90
54642;DHT22;40536;53.194;5.728;2023-05-16T11:24:59;16.70;99.90
54642;DHT22;40536;53.194;5.728;2023-05-16T11:27:35;16.60;99.90
54642;DHT22;40536;53.194;5.728;2023-05-16T11:30:14;16.40;99.90
54642;DHT22;40536;53.194;5.728;2023-05-16T11:32:42;17.00;99.90
54642;DHT22;40536;53.194;5.728;2023-05-16T11:35:11;17.20;99.90
54642;DHT22;40536;53.194;5.728;2023-05-16T11:37:37;17.60;99.90
54642;DHT22;40536;53.194;5.728;2023-05-16T11:40:07;17.70;99.90
54642;DHT22;40536;53.194;5.728;2023-05-16T11:42:38;17.60;99.90
54642;DHT22;40536;53.194;5.728;2023-05-16T11:45:18;17.50;99.90
54642;DHT22;40536;53.194;5.728;2023-05-16T11:47:45;17.30;99.90
54642;DHT22;40536;53.194;5.728;2023-05-16T11:50:18;17.50;99.90
54642;DHT22;40536;53.194;5.728;2023-05-16T11:52:50;17.80;99.90
54642;DHT22;40536;53.194;5.728;2023-05-16T11:55:20;17.80;99.90
54642;DHT22;40536;53.194;5.728;2023-05-16T11:57:52;17.90;99.90
54642;DHT22;40536;53.194;5.728;2023-05-16T12:00:19;18.00;99.90
54642;DHT22;40536;53.194;5.728;2023-05-16T12:02:46;18.20;99.90
54642;DHT22;40536;53.194;5.728;2023-05-16T12:05:12;18.10;99.90
54642;DHT22;40536;53.194;5.728;2023-05-16T12:07:39;17.80;99.90
54642;DHT22;40536;53.194;5.728;2023-05-16T12:12:32;17.00;99.90
54642;DHT22;40536;53.194;5.728;2023-05-16T12:14:58;16.60;99.90
54642;DHT22;40536;53.194;5.728;2023-05-16T12:17:24;16.20;99.90
54642;DHT22;40536;53.194;5.728;2023-05-16T12:19:50;16.00;99.90
54642;DHT22;40536;53.194;5.728;2023-05-16T12:22:16;15.90;99.90
54642;DHT22;40536;53.194;5.728;2023-05-16T12:24:42;15.90;99.90
54642;DHT22;40536;53.194;5.728;2023-05-16T12:27:08;16.00;99.90
54642;DHT22;40536;53.194;5.728;2023-05-16T12:29:34;16.00;99.90
54642;DHT22;40536;53.194;5.728;2023-05-16T12:32:00;16.10;99.90
54642;DHT22;40536;53.194;5.728;2023-05-16T12:34:28;16.30;99.90
54642;DHT22;40536;53.194;5.728;2023-05-16T12:36:54;16.60;99.90
54642;DHT22;40536;53.194;5.728;2023-05-16T12:39:20;16.60;99.90
54642;DHT22;40536;53.194;5.728;2023-05-16T12:41:47;16.50;99.90
54642;DHT22;40536;53.194;5.728;2023-05-16T12:44:15;16.20;99.90
54642;DHT22;40536;53.194;5.728;2023-05-16T12:46:51;16.30;99.90
54642;DHT22;40536;53.194;5.728;2023-05-16T12:49:20;16.20;99.90
54642;DHT22;40536;53.194;5.728;2023-05-16T12:51:50;16.30;99.90
54642;DHT22;40536;53.194;5.728;2023-05-16T12:54:16;16.30;99.90
54642;DHT22;40536;53.194;5.728;2023-05-16T12:56:43;16.40;99.90
54642;DHT22;40536;53.194;5.728;2023-05-16T12:59:09;16.40;99.90
54642;DHT22;40536;53.194;5.728;2023-05-16T13:01:36;16.10;99.90
54642;DHT22;40536;53.194;5.728;2023-05-16T13:04:02;16.00;99.90
54642;DHT22;40536;53.194;5.728;2023-05-16T13:06:28;16.00;99.90
54642;DHT22;40536;53.194;5.728;2023-05-16T13:08:54;16.10;99.90
54642;DHT22;40536;53.194;5.728;2023-05-16T13:11:20;16.20;99.90
54642;DHT22;40536;53.194;5.728;2023-05-16T13:13:46;16.20;99.90
54642;DHT22;40536;53.194;5.728;2023-05-16T13:16:12;16.10;99.90
54642;DHT22;40536;53.194;5.728;2023-05-16T13:18:37;16.20;99.90
54642;DHT22;40536;53.194;5.728;2023-05-16T13:21:03;16.20;99.90
54642;DHT22;40536;53.194;5.728;2023-05-16T13:23:29;15.90;99.90
54642;DHT22;40536;53.194;5.728;2023-05-16T13:25:55;15.60;99.90
54642;DHT22;40536;53.194;5.728;2023-05-16T13:28:21;15.40;99.90
54642;DHT22;40536;53.194;5.728;2023-05-16T13:30:47;15.30;99.90
54642;DHT22;40536;53.194;5.728;2023-05-16T13:33:13;15.50;99.90
54642;DHT22;40536;53.194;5.728;2023-05-16T13:35:38;15.60;99.90
54642;DHT22;40536;53.194;5.728;2023-05-16T13:38:04;15.80;99.90
54642;DHT22;40536;53.194;5.728;2023-05-16T13:40:30;15.80;99.90
54642;DHT22;40536;53.194;5.728;2023-05-16T13:42:55;15.80;99.90
54642;DHT22;40536;53.194;5.728;2023-05-16T13:45:21;15.70;99.90
54642;DHT22;40536;53.194;5.728;2023-05-16T13:47:47;15.70;99.90
54642;DHT22;40536;53.194;5.728;2023-05-16T13:50:13;15.70;99.90
54642;DHT22;40536;53.194;5.728;2023-05-16T13:52:39;15.60;99.90
54642;DHT22;40536;53.194;5.728;2023-05-16T13:55:06;15.50;99.90
54642;DHT22;40536;53.194;5.728;2023-05-16T13:57:32;15.40;99.90
54642;DHT22;40536;53.194;5.728;2023-05-16T13:59:58;15.40;99.90
54642;DHT22;40536;53.194;5.728;2023-05-16T14:02:24;15.30;99.90
54642;DHT22;40536;53.194;5.728;2023-05-16T14:04:51;15.20;99.90
54642;DHT22;40536;53.194;5.728;2023-05-16T14:07:17;15.10;99.90
54642;DHT22;40536;53.194;5.728;2023-05-16T14:09:43;15.00;99.90
54642;DHT22;40536;53.194;5.728;2023-05-16T14:12:09;15.00;99.90
54642;DHT22;40536;53.194;5.728;2023-05-16T14:14:36;14.80;99.90
54642;DHT22;40536;53.194;5.728;2023-05-16T14:17:02;14.70;99.90
54642;DHT22;40536;53.194;5.728;2023-05-16T14:19:28;14.60;99.90
54642;DHT22;40536;53.194;5.728;2023-05-16T14:21:54;14.60;99.90
54642;DHT22;40536;53.194;5.728;2023-05-16T14:24:20;14.60;99.90
54642;DHT22;40536;53.194;5.728;2023-05-16T14:26:46;14.50;99.90
54642;DHT22;40536;53.194;5.728;2023-05-16T14:29:11;14.40;99.90
54642;DHT22;40536;53.194;5.728;2023-05-16T14:31:38;14.40;99.90
54642;DHT22;40536;53.194;5.728;2023-05-16T14:34:04;14.40;99.90
54642;DHT22;40536;53.194;5.728;2023-05-16T14:36:29;14.40;99.90
54642;DHT22;40536;53.194;5.728;2023-05-16T14:38:56;14.30;99.90
54642;DHT22;40536;53.194;5.728;2023-05-16T14:41:22;14.30;99.90
54642;DHT22;40536;53.194;5.728;2023-05-16T14:43:48;14.30;99.90
54642;DHT22;40536;53.194;5.728;2023-05-16T14:46:13;14.20;99.90
54642;DHT22;40536;53.194;5.728;2023-05-16T14:48:39;14.10;99.90
54642;DHT22;40536;53.194;5.728;2023-05-16T14:51:05;13.90;99.90
54642;DHT22;40536;53.194;5.728;2023-05-16T14:53:31;13.70;99.90
54642;DHT22;40536;53.194;5.728;2023-05-16T14:55:57;13.30;99.90
54642;DHT22;40536;53.194;5.728;2023-05-16T14:58:23;12.90;99.90
54642;DHT22;40536;53.194;5.728;2023-05-16T15:00:50;12.70;99.90
54642;DHT22;40536;53.194;5.728;2023-05-16T15:03:16;12.60;99.90
54642;DHT22;40536;53.194;5.728;2023-05-16T15:05:44;12.50;99.90
54642;DHT22;40536;53.194;5.728;2023-05-16T15:08:10;12.50;99.90
54642;DHT22;40536;53.194;5.728;2023-05-16T15:10:36;12.60;99.90
54642;DHT22;40536;53.194;5.728;2023-05-16T15:13:01;12.70;99.90
54642;DHT22;40536;53.194;5.728;2023-05-16T15:15:28;12.70;99.90
54642;DHT22;40536;53.194;5.728;2023-05-16T15:17:54;12.80;99.90
54642;DHT22;40536;53.194;5.728;2023-05-16T15:20:20;12.90;99.90
54642;DHT22;40536;53.194;5.728;2023-05-16T15:22:46;12.90;99.90
54642;DHT22;40536;53.194;5.728;2023-05-16T15:25:12;13.00;99.90
54642;DHT22;40536;53.194;5.728;2023-05-16T15:27:39;13.10;99.90
54642;DHT22;40536;53.194;5.728;2023-05-16T15:30:05;13.30;99.90
54642;DHT22;40536;53.194;5.728;2023-05-16T15:32:33;13.30;99.90
54642;DHT22;40536;53.194;5.728;2023-05-16T15:34:58;13.50;99.90
54642;DHT22;40536;53.194;5.728;2023-05-16T15:37:26;13.60;99.90
54642;DHT22;40536;53.194;5.728;2023-05-16T15:39:51;13.60;99.90
54642;DHT22;40536;53.194;5.728;2023-05-16T15:42:17;13.70;99.90
54642;DHT22;40536;53.194;5.728;2023-05-16T15:44:44;13.80;99.90
54642;DHT22;40536;53.194;5.728;2023-05-16T15:47:10;13.80;99.90
54642;DHT22;40536;53.194;5.728;2023-05-16T15:49:36;13.90;99.90
54642;DHT22;40536;53.194;5.728;2023-05-16T15:52:02;14.00;99.90
54642;DHT22;40536;53.194;5.728;2023-05-16T15:54:27;14.10;99.90
54642;DHT22;40536;53.194;5.728;2023-05-16T15:56:54;14.20;99.90
54642;DHT22;40536;53.194;5.728;2023-05-16T15:59:19;14.30;99.90
54642;DHT22;40536;53.194;5.728;2023-05-16T16:01:45;14.30;99.90
54642;DHT22;40536;53.194;5.728;2023-05-16T16:04:10;14.40;99.90
54642;DHT22;40536;53.194;5.728;2023-05-16T16:06:36;14.40;99.90